Time;durP1;ratioP1;P1;durP2;ratioP2;P2;SDS_P1;SDS_P2;PMS_P1;PMS_P2;Temp;Humidity;BMP_temperature;BMP_pressure;BME280_temperature;BME280_humidity;BME280_pressure;Samples;Min_cycle;Max_cycle;Signal;HPM_P1;HPM_P2
2023/12/07 00:00:05;;;;;;;13.20;6.70;;;;;;;5.12;84.72;100944.05;108051;1283;21980;-60
2023/12/07 00:02:31;;;;;;;19.20;7.40;;;;;;;5.13;84.88;100946.33;108059;1283;21986;-63
2023/12/07 00:04:56;;;;;;;10.60;7.30;;;;;;;5.13;84.98;100945.81;108068;1277;21992;-61
2023/12/07 00:07:22;;;;;;;14.80;7.60;;;;;;;5.12;85.01;100944.22;108078;1289;22015;-61
2023/12/07 00:09:47;;;;;;;15.80;7.80;;;;;;;5.11;84.87;100950.65;108041;1277;22010;-60
2023/12/07 00:12:13;;;;;;;18.70;8.00;;;;;;;5.12;85.36;100951.34;108079;1289;22089;-63
2023/12/07 00:14:38;;;;;;;12.90;7.50;;;;;;;5.10;84.96;100954.80;108039;1280;22045;-60
2023/12/07 00:17:04;;;;;;;17.00;8.00;;;;;;;5.09;84.80;100953.38;108055;1277;21987;-62
2023/12/07 00:19:30;;;;;;;13.70;6.70;;;;;;;5.08;84.81;100949.36;108039;1289;21989;-62
2023/12/07 00:21:55;;;;;;;12.50;7.20;;;;;;;5.07;85.02;100950.23;108027;1283;21990;-61
2023/12/07 00:24:21;;;;;;;13.40;7.90;;;;;;;5.06;84.93;100949.52;108107;1288;21992;-62
2023/12/07 00:26:47;;;;;;;12.80;7.20;;;;;;;5.05;84.85;100954.20;108089;1283;22029;-60
2023/12/07 00:29:12;;;;;;;15.60;7.40;;;;;;;5.05;84.93;100958.71;107379;1289;1002426;-63
2023/12/07 00:31:38;;;;;;;17.50;8.20;;;;;;;5.05;85.01;100955.40;108029;1283;21986;-60
2023/12/07 00:34:03;;;;;;;13.90;7.80;;;;;;;5.05;85.28;100956.46;108050;1287;21997;-60
2023/12/07 00:36:29;;;;;;;14.50;8.20;;;;;;;5.05;85.24;100958.55;108035;1283;21992;-63
2023/12/07 00:38:55;;;;;;;14.20;7.30;;;;;;;5.10;85.09;100952.90;108166;1284;22021;-60
2023/12/07 00:41:21;;;;;;;15.90;8.30;;;;;;;5.10;84.81;100953.06;108109;1288;22024;-60
2023/12/07 00:43:47;;;;;;;25.90;8.70;;;;;;;5.05;85.23;100951.40;108136;1277;21993;-60
2023/12/07 00:46:13;;;;;;;14.30;7.30;;;;;;;5.05;85.65;100955.06;108120;1279;22000;-62
2023/12/07 00:48:38;;;;;;;14.70;7.80;;;;;;;5.05;85.46;100957.50;108121;1287;22040;-61
2023/12/07 00:51:06;;;;;;;15.10;7.80;;;;;;;5.06;85.73;100958.38;107779;1288;22083;-60
2023/12/07 00:53:32;;;;;;;19.90;7.70;;;;;;;5.08;85.69;100955.80;108147;1287;22007;-59
2023/12/07 00:55:57;;;;;;;13.80;7.40;;;;;;;5.07;85.56;100956.31;108165;1288;23755;-59
2023/12/07 00:58:23;;;;;;;17.00;7.60;;;;;;;5.07;85.36;100954.77;108197;1277;22057;-61
2023/12/07 01:00:48;;;;;;;14.50;7.30;;;;;;;5.06;85.16;100950.04;108151;1287;22030;-59
2023/12/07 01:03:14;;;;;;;15.30;7.60;;;;;;;5.05;85.33;100945.31;108285;1287;21988;-61
2023/12/07 07:18:05;;;;;;;15.30;8.40;;;;;;;5.49;87.74;100938.30;108112;1282;22093;-60
2023/12/07 07:20:31;;;;;;;17.20;8.80;;;;;;;5.54;87.89;100940.11;108186;1284;21988;-61
2023/12/07 07:22:57;;;;;;;14.60;8.50;;;;;;;5.59;87.81;100940.71;108212;1283;22219;-63
2023/12/07 07:25:23;;;;;;;18.20;10.00;;;;;;;5.63;87.92;100938.18;108053;1280;21991;-61
2023/12/07 07:27:48;;;;;;;19.50;8.90;;;;;;;5.67;88.09;100936.33;108122;1288;21991;-60
2023/12/07 07:30:14;;;;;;;17.30;8.80;;;;;;;5.69;87.96;100930.61;108305;1287;21989;-59
2023/12/07 07:32:40;;;;;;;16.60;8.20;;;;;;;5.70;87.77;100929.41;108080;1283;22043;-60
2023/12/07 07:35:07;;;;;;;18.00;8.20;;;;;;;5.71;87.65;100926.30;108068;1280;21991;-61
2023/12/07 07:37:33;;;;;;;14.30;8.30;;;;;;;5.73;87.83;100927.55;108125;1288;21993;-60
2023/12/07 07:39:59;;;;;;;14.90;7.80;;;;;;;5.76;88.01;100928.64;108214;1288;21987;-60
2023/12/07 07:42:25;;;;;;;13.90;8.60;;;;;;;5.80;87.74;100930.45;107435;1283;1003024;-63
2023/12/07 07:44:51;;;;;;;11.60;7.20;;;;;;;5.83;87.91;100934.66;108126;1288;22022;-63
2023/12/07 07:47:17;;;;;;;17.50;8.90;;;;;;;5.86;88.24;100935.60;108063;1288;23814;-63
2023/12/07 07:49:42;;;;;;;20.00;9.50;;;;;;;5.89;88.11;100931.64;108078;1288;21982;-63
2023/12/07 07:52:08;;;;;;;16.50;8.50;;;;;;;5.91;87.89;100931.49;108071;1288;21987;-60
2023/12/07 07:54:37;;;;;;;14.90;7.80;;;;;;;5.93;87.92;100936.58;108141;1275;21984;-61
2023/12/07 07:57:02;;;;;;;15.50;7.90;;;;;;;5.96;88.07;100937.84;108182;1283;21994;-64
2023/12/07 07:59:30;;;;;;;14.60;7.40;;;;;;;6.02;88.36;100935.86;108236;1288;22025;-61
2023/12/07 08:01:57;;;;;;;16.70;7.40;;;;;;;6.04;88.03;100934.86;108237;1288;22766;-60
2023/12/07 08:04:22;;;;;;;14.80;8.20;;;;;;;6.06;88.03;100936.62;108125;1283;21987;-60
2023/12/07 08:06:48;;;;;;;18.10;9.50;;;;;;;6.07;87.96;100935.94;108086;1277;22049;-60
2023/12/07 08:09:14;;;;;;;18.00;8.90;;;;;;;6.08;87.95;100939.10;107884;1288;22923;-62
2023/12/07 08:11:40;;;;;;;66.90;11.80;;;;;;;6.09;88.15;100941.21;108092;1283;21991;-60
2023/12/07 08:14:06;;;;;;;15.30;7.80;;;;;;;6.13;88.60;100936.55;108143;1280;21992;-60
2023/12/07 08:16:32;;;;;;;15.50;8.00;;;;;;;6.16;88.14;100934.52;108111;1275;21983;-60
2023/12/07 08:18:58;;;;;;;16.20;7.60;;;;;;;6.16;87.73;100934.00;108067;1288;21982;-63
2023/12/07 08:21:24;;;;;;;12.10;7.40;;;;;;;6.18;87.98;100932.11;108083;1278;21991;-60
2023/12/07 08:23:51;;;;;;;15.90;7.70;;;;;;;6.20;88.27;100930.22;108160;1286;21995;-61
2023/12/07 08:26:17;;;;;;;17.00;8.80;;;;;;;6.23;88.36;100930.27;108123;1283;21987;-63
2023/12/07 08:28:43;;;;;;;21.70;9.10;;;;;;;6.26;88.42;100928.22;108228;1287;21987;-61
2023/12/07 08:31:09;;;;;;;18.30;9.40;;;;;;;6.29;88.48;100933.13;108064;1275;22024;-63
2023/12/07 08:33:35;;;;;;;14.40;9.00;;;;;;;6.31;88.18;100933.15;108130;1280;21978;-63
2023/12/07 08:36:02;;;;;;;13.60;7.50;;;;;;;6.32;88.14;100933.70;108163;1280;22010;-61
2023/12/07 08:38:27;;;;;;;17.80;8.70;;;;;;;6.31;87.81;100936.48;108158;1274;21985;-63
2023/12/07 08:40:53;;;;;;;12.60;7.50;;;;;;;6.31;87.69;100935.77;108132;1286;21994;-64
2023/12/07 08:43:25;;;;;;;17.50;8.00;;;;;;;6.31;87.74;100937.86;108109;1288;21989;-64
2023/12/07 08:45:51;;;;;;;14.40;7.80;;;;;;;6.33;87.96;100939.28;108140;1287;21989;-64
2023/12/07 08:48:19;;;;;;;14.90;8.30;;;;;;;6.34;88.09;100934.60;108100;1288;21995;-63
2023/12/07 08:50:44;;;;;;;15.90;9.20;;;;;;;6.36;88.24;100928.88;108135;1286;21993;-61
2023/12/07 08:53:10;;;;;;;13.50;7.40;;;;;;;6.38;88.09;100925.07;108122;1285;21987;-63
2023/12/07 08:55:36;;;;;;;12.80;7.80;;;;;;;6.38;88.06;100921.07;107935;1288;22143;-60
2023/12/07 08:58:04;;;;;;;12.40;7.70;;;;;;;6.40;88.17;100916.56;108067;1280;21987;-60
2023/12/07 09:00:31;;;;;;;13.80;8.30;;;;;;;6.43;88.19;100908.73;108090;1283;21987;-62
2023/12/07 09:02:57;;;;;;;13.40;7.50;;;;;;;6.44;87.87;100900.91;108099;1288;21994;-62
2023/12/07 09:05:23;;;;;;;13.90;8.10;;;;;;;6.47;88.21;100901.81;108065;1280;21997;-62
2023/12/07 09:07:48;;;;;;;15.70;8.10;;;;;;;6.50;88.33;100905.52;108093;1288;22004;-63
2023/12/07 09:10:14;;;;;;;15.80;8.20;;;;;;;6.52;88.23;100909.20;108043;1288;22021;-62
2023/12/07 09:12:39;;;;;;;20.40;9.10;;;;;;;6.54;88.46;100909.59;108088;1288;21987;-61
2023/12/07 09:15:09;;;;;;;17.60;8.50;;;;;;;6.56;88.47;100910.14;108158;1281;21987;-64
2023/12/07 09:17:37;;;;;;;14.90;8.00;;;;;;;6.59;88.30;100910.52;108123;1283;23055;-60
2023/12/07 09:20:12;;;;;;;15.70;8.20;;;;;;;6.61;88.17;100908.97;108125;1280;21990;-60
2023/12/07 09:22:40;;;;;;;15.60;7.50;;;;;;;6.62;88.41;100908.81;108068;1288;21984;-60
2023/12/07 09:25:07;;;;;;;15.50;8.50;;;;;;;6.64;88.17;100903.24;108074;1286;21987;-61
2023/12/07 09:27:34;;;;;;;18.60;8.60;;;;;;;6.65;88.05;100902.04;108120;1288;21987;-61
2023/12/07 09:30:01;;;;;;;12.50;8.00;;;;;;;6.64;88.14;100899.59;108127;1277;21983;-60
2023/12/07 09:32:28;;;;;;;18.80;8.80;;;;;;;6.64;88.01;100897.67;108163;1284;21992;-63
2023/12/07 09:34:53;;;;;;;15.50;8.60;;;;;;;6.63;87.86;100900.27;108112;1283;21994;-63
2023/12/07 09:37:19;;;;;;;15.10;8.50;;;;;;;6.64;87.83;100897.30;108061;1287;22043;-60
2023/12/07 09:39:45;;;;;;;13.80;8.30;;;;;;;6.65;87.95;100894.37;108051;1287;21997;-63
2023/12/07 09:42:11;;;;;;;16.80;8.90;;;;;;;6.66;88.09;100895.25;108080;1288;21987;-60
2023/12/07 09:44:36;;;;;;;16.00;7.40;;;;;;;6.67;88.03;100890.90;108072;1280;21985;-60
2023/12/07 09:47:03;;;;;;;17.10;9.40;;;;;;;6.67;88.05;100893.70;107818;1286;22178;-63
2023/12/07 09:49:29;;;;;;;17.00;9.10;;;;;;;6.67;87.95;100895.27;108080;1276;22250;-64
2023/12/07 09:51:55;;;;;;;21.30;9.40;;;;;;;6.67;88.09;100889.68;108037;1288;21987;-62
2023/12/07 09:54:20;;;;;;;15.90;8.90;;;;;;;6.68;88.15;100882.71;107805;1288;21987;-60
2023/12/07 09:56:46;;;;;;;18.50;9.40;;;;;;;6.67;88.08;100879.58;107729;1283;21987;-63
2023/12/07 09:59:12;;;;;;;19.90;9.80;;;;;;;6.66;88.18;100876.59;108081;1288;21990;-61
2023/12/07 10:01:39;;;;;;;18.00;8.80;;;;;;;6.68;88.09;100872.95;107336;1288;1003113;-63
2023/12/07 10:04:18;;;;;;;16.70;9.30;;;;;;;6.68;88.05;100870.51;108073;1288;22000;-60
2023/12/07 10:06:47;;;;;;;15.40;8.70;;;;;;;6.69;88.28;100872.45;108055;1287;21961;-60
2023/12/07 10:09:13;;;;;;;15.40;7.90;;;;;;;6.70;88.36;100869.66;108072;1288;23751;-61
2023/12/07 10:11:40;;;;;;;18.60;10.10;;;;;;;6.73;88.50;100867.61;108065;1280;21989;-60
2023/12/07 10:14:07;;;;;;;14.50;8.30;;;;;;;6.75;88.52;100870.08;108105;1283;22031;-62
2023/12/07 10:16:35;;;;;;;15.40;8.20;;;;;;;6.76;88.62;100869.21;108261;1288;21986;-63
2023/12/07 10:19:17;;;;;;;15.10;8.70;;;;;;;6.76;88.61;100869.57;108103;1280;21989;-64
2023/12/07 10:21:43;;;;;;;26.80;9.20;;;;;;;6.76;88.61;100863.64;108113;1288;23341;-61
2023/12/07 10:24:09;;;;;;;15.50;8.20;;;;;;;6.78;88.85;100859.13;108031;1281;22370;-64
2023/12/07 10:26:36;;;;;;;13.60;8.30;;;;;;;6.80;88.54;100858.62;108078;1288;21988;-61
2023/12/07 10:29:05;;;;;;;16.20;9.00;;;;;;;6.82;88.61;100860.73;107820;1280;22079;-61
2023/12/07 10:31:32;;;;;;;15.20;8.30;;;;;;;6.84;88.79;100857.96;108125;1285;21988;-61
2023/12/07 10:33:59;;;;;;;15.50;9.00;;;;;;;6.86;88.85;100853.27;108107;1287;23097;-64
2023/12/07 10:36:25;;;;;;;14.60;8.20;;;;;;;6.84;88.50;100851.52;108150;1285;21995;-63
2023/12/07 10:38:53;;;;;;;17.50;9.10;;;;;;;6.84;88.62;100847.48;108120;1288;21992;-61
2023/12/07 10:41:25;;;;;;;17.00;8.60;;;;;;;6.86;88.74;100851.86;107819;1287;21997;-63
2023/12/07 10:43:53;;;;;;;19.00;8.90;;;;;;;6.88;88.54;100851.18;108071;1287;21975;-63
2023/12/07 10:46:20;;;;;;;14.30;8.30;;;;;;;6.88;88.47;100850.49;108236;1288;22000;-64
2023/12/07 10:48:47;;;;;;;14.10;8.50;;;;;;;6.89;88.51;100848.94;108134;1286;21989;-61
2023/12/07 10:51:19;;;;;;;16.20;8.50;;;;;;;6.89;88.53;100848.77;108133;1288;22047;-62
2023/12/07 10:53:45;;;;;;;16.70;8.20;;;;;;;6.89;88.30;100847.36;108108;1286;22166;-64
2023/12/07 10:56:13;;;;;;;19.30;10.80;;;;;;;6.86;88.13;100843.67;107851;1280;22062;-64
2023/12/07 10:58:39;;;;;;;14.30;7.80;;;;;;;6.86;88.38;100842.98;108095;1288;21996;-63
2023/12/07 11:01:06;;;;;;;20.60;9.10;;;;;;;6.85;88.31;100839.13;107757;1288;21987;-61
2023/12/07 11:03:36;;;;;;;14.60;8.30;;;;;;;6.85;88.13;100843.31;108163;1280;22079;-64
2023/12/07 11:06:05;;;;;;;14.70;8.10;;;;;;;6.89;88.69;100841.59;107898;1288;22744;-61
2023/12/07 11:08:31;;;;;;;14.20;6.80;;;;;;;6.93;88.89;100837.64;108074;1288;21985;-62
2023/12/07 11:11:03;;;;;;;14.10;8.90;;;;;;;6.93;88.66;100836.59;108131;1285;21984;-61
2023/12/07 11:13:31;;;;;;;15.80;9.50;;;;;;;6.91;88.21;100837.95;108200;1287;22030;-63
2023/12/07 11:15:57;;;;;;;20.10;9.30;;;;;;;6.90;88.31;100841.79;108180;1280;21990;-62
2023/12/07 11:18:26;;;;;;;13.90;8.70;;;;;;;6.89;88.42;100838.83;107795;1279;21992;-62
2023/12/07 11:20:52;;;;;;;16.00;8.50;;;;;;;6.88;88.28;100837.23;109303;1287;21991;-60
2023/12/07 11:23:18;;;;;;;16.40;9.10;;;;;;;6.87;88.53;100835.48;107912;1287;23644;-60
2023/12/07 11:25:45;;;;;;;15.20;8.00;;;;;;;6.85;88.38;100835.98;107985;1288;21985;-62
2023/12/07 11:28:12;;;;;;;15.40;8.10;;;;;;;6.81;88.07;100832.81;107958;1281;24403;-62
2023/12/07 11:30:40;;;;;;;14.50;8.70;;;;;;;6.78;88.22;100827.73;108124;1288;21995;-62
2023/12/07 11:33:06;;;;;;;14.20;9.30;;;;;;;6.75;88.29;100830.30;108096;1287;21984;-60
2023/12/07 11:35:40;;;;;;;15.30;9.20;;;;;;;6.70;88.11;100832.86;108086;1277;22003;-61
2023/12/07 11:38:12;;;;;;;15.30;8.80;;;;;;;6.67;88.33;100841.39;107255;1288;1002408;-62
2023/12/07 11:40:41;;;;;;;17.70;8.00;;;;;;;6.67;88.39;100837.89;107381;1288;1002208;-62
2023/12/07 11:43:10;;;;;;;16.20;8.70;;;;;;;6.67;88.49;100838.94;107374;1277;1002901;-60
2023/12/07 11:45:48;;;;;;;19.10;8.80;;;;;;;6.63;88.56;100831.91;108086;1288;21987;-63
2023/12/07 11:48:15;;;;;;;15.90;9.40;;;;;;;6.65;88.88;100828.61;108108;1277;22171;-63
2023/12/07 11:51:03;;;;;;;14.40;8.90;;;;;;;6.68;88.89;100830.39;108157;1277;21995;-60
2023/12/07 11:53:30;;;;;;;17.20;9.40;;;;;;;6.69;88.74;100829.02;108124;1288;22002;-61
2023/12/07 11:55:57;;;;;;;18.50;10.60;;;;;;;6.68;88.91;100827.96;108127;1288;21994;-61
2023/12/07 11:58:26;;;;;;;25.70;11.30;;;;;;;6.68;88.95;100829.02;108093;1288;21990;-62
2023/12/07 12:00:56;;;;;;;22.40;9.70;;;;;;;6.68;89.07;100826.21;108097;1288;21986;-63
2023/12/07 12:03:22;;;;;;;16.80;9.00;;;;;;;6.67;89.07;100829.87;108050;1288;21989;-61
2023/12/07 12:05:48;;;;;;;15.10;8.10;;;;;;;6.66;89.15;100833.52;108178;1288;21998;-63
2023/12/07 12:08:13;;;;;;;15.10;8.40;;;;;;;6.67;89.24;100834.92;108120;1283;22062;-64
2023/12/07 12:10:40;;;;;;;17.30;7.80;;;;;;;6.67;89.12;100831.80;108154;1280;21971;-63
2023/12/07 12:13:06;;;;;;;15.30;8.70;;;;;;;6.66;89.21;100834.39;108161;1288;22006;-60
2023/12/07 12:15:31;;;;;;;18.70;9.40;;;;;;;6.64;89.21;100835.92;107371;1287;1004079;-60
2023/12/07 12:17:58;;;;;;;20.60;10.00;;;;;;;6.63;89.55;100833.66;108080;1287;21989;-60
2023/12/07 12:20:24;;;;;;;19.40;10.80;;;;;;;6.62;89.58;100830.86;108127;1280;22102;-62
2023/12/07 12:22:53;;;;;;;22.90;13.20;;;;;;;6.57;89.32;100830.30;108113;1288;21987;-61
2023/12/07 12:25:30;;;;;;;337.10;140.00;;;;;;;6.53;89.57;100827.11;107428;1288;1003658;-63
2023/12/07 12:28:03;;;;;;;181.50;101.60;;;;;;;6.52;89.77;100824.65;108232;1284;22046;-64
2023/12/07 12:30:29;;;;;;;204.70;109.90;;;;;;;6.51;90.04;100825.34;107435;1287;1002036;-64
2023/12/07 12:32:55;;;;;;;205.20;98.10;;;;;;;6.54;90.70;100823.45;108198;1280;21985;-60
2023/12/07 12:35:23;;;;;;;120.80;65.10;;;;;;;6.57;91.13;100823.14;108149;1288;21994;-60
2023/12/07 12:37:49;;;;;;;42.80;25.40;;;;;;;6.64;91.64;100826.52;108166;1287;21980;-63
2023/12/07 12:40:18;;;;;;;44.30;27.30;;;;;;;6.64;90.58;100825.82;108218;1288;21989;-62
2023/12/07 12:42:48;;;;;;;37.50;19.70;;;;;;;6.60;90.46;100828.58;108109;1288;23670;-62
2023/12/07 12:45:14;;;;;;;134.70;70.20;;;;;;;6.58;90.40;100830.30;108097;1288;22147;-62
2023/12/07 12:47:46;;;;;;;33.80;19.40;;;;;;;6.52;89.81;100828.66;108103;1288;21991;-63
2023/12/07 12:50:12;;;;;;;35.10;18.20;;;;;;;6.49;89.82;100828.45;107958;1288;23641;-63
2023/12/07 12:52:41;;;;;;;20.70;12.00;;;;;;;6.49;89.99;100828.61;108238;1288;21989;-63
2023/12/07 12:55:10;;;;;;;22.90;12.50;;;;;;;6.46;89.57;100827.54;108084;1289;21987;-61
2023/12/07 12:57:37;;;;;;;21.00;13.20;;;;;;;6.43;89.61;100827.85;108073;1289;21988;-62
2023/12/07 13:00:04;;;;;;;24.00;15.20;;;;;;;6.44;90.54;100828.04;108132;1288;22461;-60
2023/12/07 13:02:30;;;;;;;23.20;13.30;;;;;;;6.48;90.78;100827.38;108070;1287;21992;-60
2023/12/07 13:04:55;;;;;;;21.30;12.10;;;;;;;6.49;90.84;100823.39;107538;1288;1002133;-63
2023/12/07 13:07:21;;;;;;;18.50;9.50;;;;;;;6.48;90.64;100824.95;107384;1288;1002318;-63
2023/12/07 13:09:47;;;;;;;20.90;13.70;;;;;;;6.50;91.11;100827.23;108192;1286;21989;-63
2023/12/07 13:12:13;;;;;;;69.90;49.20;;;;;;;6.50;90.97;100830.20;108220;1283;21991;-61
2023/12/07 13:14:42;;;;;;;22.90;14.90;;;;;;;6.49;90.86;100826.88;108121;1284;21987;-60
2023/12/07 13:17:07;;;;;;;20.30;12.90;;;;;;;6.47;90.74;100825.81;108192;1283;21995;-62
2023/12/07 13:19:33;;;;;;;24.10;16.30;;;;;;;6.44;90.92;100827.34;108184;1288;22453;-62
2023/12/07 13:22:00;;;;;;;28.40;16.00;;;;;;;6.44;91.02;100828.04;108199;1288;21986;-60
2023/12/07 13:24:26;;;;;;;20.70;11.90;;;;;;;6.40;90.92;100826.43;108110;1288;21993;-62
2023/12/07 13:26:51;;;;;;;20.50;11.10;;;;;;;6.41;91.01;100824.52;108117;1288;21989;-61
2023/12/07 13:29:17;;;;;;;22.20;13.70;;;;;;;6.41;91.32;100830.80;107427;1288;1002664;-60
2023/12/07 13:31:43;;;;;;;24.10;12.00;;;;;;;6.45;91.74;100830.66;107917;1288;21990;-62
2023/12/07 13:34:08;;;;;;;22.70;14.70;;;;;;;6.47;91.54;100831.56;108114;1275;21991;-63
2023/12/07 13:36:35;;;;;;;34.10;19.40;;;;;;;6.47;91.50;100828.41;108108;1288;21990;-64
2023/12/07 13:39:04;;;;;;;20.60;12.40;;;;;;;6.47;91.47;100828.59;108127;1288;21990;-61
2023/12/07 13:41:33;;;;;;;37.60;13.30;;;;;;;6.45;91.73;100828.74;108019;1288;21985;-61
2023/12/07 13:44:01;;;;;;;41.80;12.40;;;;;;;6.46;91.77;100825.09;108133;1288;23732;-61
2023/12/07 13:46:27;;;;;;;28.90;12.10;;;;;;;6.46;91.91;100830.67;108156;1288;21990;-62
2023/12/07 13:48:52;;;;;;;28.70;10.20;;;;;;;6.46;91.86;100835.39;108113;1284;22890;-61
2023/12/07 13:51:18;;;;;;;31.30;9.10;;;;;;;6.46;91.59;100835.38;108105;1288;21987;-61
2023/12/07 13:53:44;;;;;;;24.00;8.20;;;;;;;6.45;91.65;100834.67;108139;1288;22162;-61
2023/12/07 13:56:10;;;;;;;29.90;11.50;;;;;;;6.46;91.77;100835.04;108062;1288;21995;-61
2023/12/07 13:58:35;;;;;;;21.70;11.90;;;;;;;6.46;92.00;100832.07;108080;1288;21992;-63
2023/12/07 14:01:01;;;;;;;29.20;13.10;;;;;;;6.45;91.57;100834.14;108098;1284;21999;-64
2023/12/07 14:03:29;;;;;;;17.50;9.70;;;;;;;6.41;91.56;100830.44;108096;1288;21992;-64
2023/12/07 14:05:55;;;;;;;17.70;10.30;;;;;;;6.37;91.38;100831.10;108112;1287;21999;-65
2023/12/07 14:08:20;;;;;;;18.90;8.90;;;;;;;6.35;91.34;100836.65;107960;1288;21995;-61
2023/12/07 14:10:48;;;;;;;15.10;7.10;;;;;;;6.31;91.49;100836.08;108103;1287;21987;-61
2023/12/07 14:13:14;;;;;;;17.10;7.30;;;;;;;6.30;91.62;100836.24;108114;1288;21997;-64
2023/12/07 14:15:40;;;;;;;20.00;9.50;;;;;;;6.29;91.65;100836.76;108124;1288;22098;-63
2023/12/07 14:18:06;;;;;;;83.10;71.70;;;;;;;6.29;91.86;100836.23;108249;1288;22454;-63
2023/12/07 14:20:33;;;;;;;26.30;18.80;;;;;;;6.32;92.56;100835.58;108287;1288;21988;-64
2023/12/07 14:23:04;;;;;;;23.60;14.10;;;;;;;6.34;92.15;100838.74;108130;1288;21996;-61
2023/12/07 14:25:30;;;;;;;21.00;13.90;;;;;;;6.32;91.73;100835.75;108168;1287;21987;-60
2023/12/07 14:27:56;;;;;;;21.50;10.90;;;;;;;6.30;91.66;100839.91;108181;1288;21991;-64
2023/12/07 14:30:22;;;;;;;19.40;9.60;;;;;;;6.30;92.08;100838.68;108093;1286;21985;-63
2023/12/07 14:32:51;;;;;;;24.00;12.50;;;;;;;6.30;91.82;100843.39;108101;1284;21984;-64
2023/12/07 14:35:18;;;;;;;17.90;10.90;;;;;;;6.31;91.77;100844.27;108007;1288;21994;-64
2023/12/07 14:37:44;;;;;;;25.90;14.70;;;;;;;6.31;91.58;100843.91;107335;1288;1002565;-61
2023/12/07 14:40:11;;;;;;;26.60;14.10;;;;;;;6.32;91.85;100849.86;107274;1287;1003211;-60
2023/12/07 14:42:36;;;;;;;23.20;13.10;;;;;;;6.34;91.89;100851.98;107885;1288;21991;-61
2023/12/07 14:45:04;;;;;;;15.60;9.10;;;;;;;6.35;91.86;100849.37;108068;1288;22004;-60
2023/12/07 14:47:30;;;;;;;19.50;9.50;;;;;;;6.37;91.99;100844.34;108187;1287;22029;-60
2023/12/07 14:49:56;;;;;;;14.60;8.40;;;;;;;6.36;91.58;100845.73;108182;1288;21997;-60
2023/12/07 14:52:24;;;;;;;18.40;10.30;;;;;;;6.31;91.47;100846.36;108114;1278;21987;-60
2023/12/07 14:54:50;;;;;;;19.60;10.90;;;;;;;6.27;91.65;100849.09;108058;1288;22129;-61
2023/12/07 14:57:15;;;;;;;21.80;11.50;;;;;;;6.28;91.91;100848.94;108000;1289;21992;-61
2023/12/07 14:59:41;;;;;;;63.80;43.10;;;;;;;6.27;91.89;100851.18;108020;1289;23038;-63
2023/12/07 15:02:06;;;;;;;26.40;17.30;;;;;;;6.31;93.46;100851.76;108051;1287;21992;-60
2023/12/07 15:04:32;;;;;;;22.10;14.20;;;;;;;6.39;93.06;100850.81;108013;1289;21991;-60
2023/12/07 15:06:58;;;;;;;20.30;12.00;;;;;;;6.34;92.43;100852.86;107991;1288;21989;-61
2023/12/07 15:09:23;;;;;;;23.80;15.80;;;;;;;6.30;92.15;100857.16;108065;1289;21993;-61
2023/12/07 15:11:51;;;;;;;34.60;22.30;;;;;;;6.29;92.06;100858.70;107268;1281;1002277;-63
2023/12/07 15:14:17;;;;;;;24.50;16.70;;;;;;;6.25;91.81;100857.77;108037;1289;21989;-64
2023/12/07 15:16:42;;;;;;;22.00;16.00;;;;;;;6.19;91.69;100857.52;108035;1289;21989;-63
2023/12/07 15:19:08;;;;;;;23.60;15.40;;;;;;;6.14;91.71;100859.73;107954;1289;21995;-61
2023/12/07 15:21:34;;;;;;;19.70;13.00;;;;;;;6.10;91.69;100855.32;108138;1289;21992;-64
2023/12/07 15:23:59;;;;;;;18.00;10.10;;;;;;;6.03;91.67;100853.64;108049;1289;21986;-65
2023/12/07 15:26:25;;;;;;;16.70;9.80;;;;;;;5.96;91.61;100853.01;108006;1288;22455;-61
2023/12/07 15:28:51;;;;;;;26.70;17.20;;;;;;;5.89;91.72;100854.65;108057;1281;21977;-65
2023/12/07 15:31:17;;;;;;;27.20;16.40;;;;;;;5.84;91.66;100854.23;108153;1288;21986;-61
2023/12/07 15:33:43;;;;;;;23.50;15.20;;;;;;;5.77;92.00;100856.21;108066;1287;21983;-64
2023/12/07 15:36:12;;;;;;;21.90;13.60;;;;;;;5.73;92.44;100855.98;107873;1288;22026;-65
2023/12/07 15:38:40;;;;;;;15.60;10.20;;;;;;;5.73;92.66;100854.77;108054;1288;22027;-61
2023/12/07 15:41:09;;;;;;;16.20;10.00;;;;;;;5.70;92.65;100850.02;108140;1288;21988;-62
2023/12/07 15:43:38;;;;;;;17.50;9.70;;;;;;;5.69;92.76;100849.65;108025;1287;23828;-62
2023/12/07 15:46:05;;;;;;;20.50;12.30;;;;;;;5.67;93.01;100849.63;108162;1288;23116;-61
2023/12/07 15:48:31;;;;;;;19.40;12.70;;;;;;;5.67;93.07;100846.83;107384;1287;1004252;-65
2023/12/07 15:50:57;;;;;;;23.20;15.30;;;;;;;5.69;93.19;100849.30;108113;1288;21997;-66
2023/12/07 15:53:22;;;;;;;59.00;40.20;;;;;;;5.74;93.64;100850.77;108106;1287;21991;-65
2023/12/07 15:55:50;;;;;;;30.10;23.50;;;;;;;5.85;94.54;100846.23;108103;1288;22041;-65
2023/12/07 15:58:17;;;;;;;26.50;20.30;;;;;;;5.86;93.50;100847.46;108109;1277;22026;-63
2023/12/07 16:00:46;;;;;;;20.20;13.60;;;;;;;5.84;93.14;100849.02;108179;1284;21989;-63
2023/12/07 16:03:11;;;;;;;19.20;12.60;;;;;;;5.81;93.05;100847.73;108232;1287;21989;-65
2023/12/07 16:05:37;;;;;;;18.90;10.70;;;;;;;5.79;92.98;100850.85;108168;1284;21987;-62
2023/12/07 16:08:02;;;;;;;18.80;10.90;;;;;;;5.80;93.30;100849.29;108275;1288;21987;-66
2023/12/07 16:10:28;;;;;;;14.60;9.20;;;;;;;5.78;93.61;100849.61;108161;1288;21994;-66
2023/12/07 16:12:54;;;;;;;15.30;9.50;;;;;;;5.78;93.58;100847.69;107971;1285;22046;-62
2023/12/07 16:15:20;;;;;;;29.80;19.00;;;;;;;5.78;93.61;100848.22;108216;1288;21986;-62
2023/12/07 16:17:46;;;;;;;48.90;35.60;;;;;;;5.81;93.75;100845.48;108146;1288;21985;-65
2023/12/07 16:20:15;;;;;;;33.40;25.00;;;;;;;5.86;94.18;100847.63;108141;1280;21996;-64
2023/12/07 16:22:41;;;;;;;18.40;12.70;;;;;;;5.88;94.01;100846.63;108028;1288;21989;-63
2023/12/07 16:25:07;;;;;;;18.80;11.90;;;;;;;5.86;93.74;100843.98;108016;1289;21958;-62
2023/12/07 16:27:32;;;;;;;21.70;14.10;;;;;;;5.86;93.58;100844.32;108024;1289;21983;-63
2023/12/07 16:30:00;;;;;;;20.30;14.90;;;;;;;5.85;93.62;100842.21;107455;1288;1002797;-62
2023/12/07 16:32:26;;;;;;;19.00;13.10;;;;;;;5.85;93.76;100843.63;108050;1288;22008;-63
2023/12/07 16:34:52;;;;;;;17.70;11.20;;;;;;;5.83;93.47;100845.67;108047;1284;21997;-65
2023/12/07 16:37:17;;;;;;;16.40;10.10;;;;;;;5.78;93.33;100843.69;107994;1288;22041;-63
2023/12/07 16:39:43;;;;;;;26.80;17.70;;;;;;;5.77;93.42;100845.05;108057;1288;22050;-63
2023/12/07 16:42:12;;;;;;;323.60;227.40;;;;;;;5.80;94.07;100844.23;108053;1286;21979;-63
2023/12/07 16:44:39;;;;;;;45.20;35.60;;;;;;;5.96;96.12;100840.98;108113;1288;22029;-63
2023/12/07 16:47:07;;;;;;;28.70;22.10;;;;;;;6.07;95.67;100840.81;108048;1288;21992;-63
2023/12/07 16:49:33;;;;;;;29.00;22.20;;;;;;;6.09;94.71;100840.33;108073;1288;22098;-65
2023/12/07 16:52:00;;;;;;;18.90;13.30;;;;;;;6.08;94.28;100839.44;108105;1286;23638;-63
2023/12/07 16:54:26;;;;;;;19.70;13.70;;;;;;;6.03;94.01;100841.64;108131;1288;23814;-63
2023/12/07 16:56:52;;;;;;;15.60;10.90;;;;;;;5.99;93.68;100836.85;108130;1287;23701;-63
2023/12/07 16:59:17;;;;;;;13.40;8.40;;;;;;;6.00;93.66;100835.63;107748;1289;21995;-64
2023/12/07 17:01:43;;;;;;;12.40;6.60;;;;;;;5.99;93.56;100839.27;107170;1288;1002466;-64
2023/12/07 17:04:09;;;;;;;14.20;8.00;;;;;;;5.99;93.57;100839.45;107876;1276;23856;-64
2023/12/07 17:06:38;;;;;;;13.90;8.40;;;;;;;6.01;94.13;100836.55;108317;1289;23686;-64
2023/12/07 17:09:04;;;;;;;16.10;11.30;;;;;;;6.04;94.18;100837.64;107986;1277;22087;-63
2023/12/07 17:11:33;;;;;;;16.70;10.40;;;;;;;6.05;94.06;100837.31;107989;1289;21992;-63
2023/12/07 17:13:59;;;;;;;20.60;11.00;;;;;;;6.05;93.77;100835.39;107924;1289;21992;-64
2023/12/07 17:16:24;;;;;;;30.70;15.60;;;;;;;6.07;93.63;100833.67;108016;1289;22002;-63
2023/12/07 17:18:54;;;;;;;18.80;10.50;;;;;;;6.12;93.21;100830.61;108025;1289;21997;-63
2023/12/07 17:21:20;;;;;;;15.00;9.20;;;;;;;6.14;93.00;100829.24;108140;1284;21989;-64